sensor_id;sensor_type;location;lat;lon;timestamp;temperature;humidity
17659;DHT22;8948;51.534;8.262;2023-07-20T00:01:55;18.50;71.40
17659;DHT22;8948;51.534;8.262;2023-07-20T00:06:55;18.50;71.10
17659;DHT22;8948;51.534;8.262;2023-07-20T00:11:56;18.40;71.10
17659;DHT22;8948;51.534;8.262;2023-07-20T00:16:56;18.40;72.30
17659;DHT22;8948;51.534;8.262;2023-07-20T00:21:57;18.40;71.70
17659;DHT22;8948;51.534;8.262;2023-07-20T00:26:57;18.30;73.00
17659;DHT22;8948;51.534;8.262;2023-07-20T00:31:58;18.10;73.70
17659;DHT22;8948;51.534;8.262;2023-07-20T00:36:59;18.10;73.70
17659;DHT22;8948;51.534;8.262;2023-07-20T00:41:59;18.10;73.80
17659;DHT22;8948;51.534;8.262;2023-07-20T00:47:00;18.10;73.90
17659;DHT22;8948;51.534;8.262;2023-07-20T00:52:01;17.90;73.90
17659;DHT22;8948;51.534;8.262;2023-07-20T00:57:04;17.80;74.00
17659;DHT22;8948;51.534;8.262;2023-07-20T01:02:05;17.90;73.70
17659;DHT22;8948;51.534;8.262;2023-07-20T01:07:10;17.90;74.00
17659;DHT22;8948;51.534;8.262;2023-07-20T01:12:22;17.90;74.10
17659;DHT22;8948;51.534;8.262;2023-07-20T01:17:23;17.90;74.20
17659;DHT22;8948;51.534;8.262;2023-07-20T01:33:14;17.70;74.60
17659;DHT22;8948;51.534;8.262;2023-07-20T01:38:17;17.60;74.80
17659;DHT22;8948;51.534;8.262;2023-07-20T01:43:19;17.60;74.90
17659;DHT22;8948;51.534;8.262;2023-07-20T01:48:19;17.60;74.80
17659;DHT22;8948;51.534;8.262;2023-07-20T01:53:20;17.60;74.80
17659;DHT22;8948;51.534;8.262;2023-07-20T01:58:21;17.60;74.60
17659;DHT22;8948;51.534;8.262;2023-07-20T02:03:21;17.60;74.60
17659;DHT22;8948;51.534;8.262;2023-07-20T02:08:24;18.00;72.50
17659;DHT22;8948;51.534;8.262;2023-07-20T02:13:24;18.50;70.80
17659;DHT22;8948;51.534;8.262;2023-07-20T02:18:25;18.80;69.40
17659;DHT22;8948;51.534;8.262;2023-07-20T02:23:25;18.90;69.00
17659;DHT22;8948;51.534;8.262;2023-07-20T02:28:26;18.90;69.20
17659;DHT22;8948;51.534;8.262;2023-07-20T02:33:26;19.00;68.80
17659;DHT22;8948;51.534;8.262;2023-07-20T02:38:27;18.90;69.20
17659;DHT22;8948;51.534;8.262;2023-07-20T02:43:28;19.00;68.90
17659;DHT22;8948;51.534;8.262;2023-07-20T02:48:29;19.10;68.70
17659;DHT22;8948;51.534;8.262;2023-07-20T02:53:29;18.90;69.30
17659;DHT22;8948;51.534;8.262;2023-07-20T02:58:30;18.60;70.00
17659;DHT22;8948;51.534;8.262;2023-07-20T03:03:31;18.20;71.50
17659;DHT22;8948;51.534;8.262;2023-07-20T03:08:32;18.20;71.20
17659;DHT22;8948;51.534;8.262;2023-07-20T03:13:32;18.10;71.30
17659;DHT22;8948;51.534;8.262;2023-07-20T03:18:33;18.00;71.30
17659;DHT22;8948;51.534;8.262;2023-07-20T03:23:34;17.70;72.80
17659;DHT22;8948;51.534;8.262;2023-07-20T03:28:38;17.70;72.90
17659;DHT22;8948;51.534;8.262;2023-07-20T03:33:38;17.70;73.20
17659;DHT22;8948;51.534;8.262;2023-07-20T03:38:39;17.50;74.00
17659;DHT22;8948;51.534;8.262;2023-07-20T03:43:40;17.40;74.10
17659;DHT22;8948;51.534;8.262;2023-07-20T03:48:40;17.40;74.40
17659;DHT22;8948;51.534;8.262;2023-07-20T03:53:41;17.40;74.60
17659;DHT22;8948;51.534;8.262;2023-07-20T03:58:42;17.40;74.30
17659;DHT22;8948;51.534;8.262;2023-07-20T04:03:44;17.50;74.10
17659;DHT22;8948;51.534;8.262;2023-07-20T04:08:45;17.50;74.00
17659;DHT22;8948;51.534;8.262;2023-07-20T04:13:47;17.40;75.00
17659;DHT22;8948;51.534;8.262;2023-07-20T04:18:48;17.20;75.00
17659;DHT22;8948;51.534;8.262;2023-07-20T04:23:48;17.00;75.60
17659;DHT22;8948;51.534;8.262;2023-07-20T04:28:49;16.90;76.40
17659;DHT22;8948;51.534;8.262;2023-07-20T04:33:51;16.90;76.50
17659;DHT22;8948;51.534;8.262;2023-07-20T04:38:51;16.90;76.40
17659;DHT22;8948;51.534;8.262;2023-07-20T04:43:52;16.80;76.40
17659;DHT22;8948;51.534;8.262;2023-07-20T04:48:52;16.80;75.70
17659;DHT22;8948;51.534;8.262;2023-07-20T04:53:53;16.80;76.00
17659;DHT22;8948;51.534;8.262;2023-07-20T04:58:53;16.70;76.80
17659;DHT22;8948;51.534;8.262;2023-07-20T05:03:54;16.60;76.80
17659;DHT22;8948;51.534;8.262;2023-07-20T05:08:55;16.70;76.40
17659;DHT22;8948;51.534;8.262;2023-07-20T05:13:55;16.70;75.90
17659;DHT22;8948;51.534;8.262;2023-07-20T05:18:56;16.90;74.80
17659;DHT22;8948;51.534;8.262;2023-07-20T05:23:57;16.90;75.30
17659;DHT22;8948;51.534;8.262;2023-07-20T05:28:58;16.90;75.30
17659;DHT22;8948;51.534;8.262;2023-07-20T05:33:58;16.90;75.00
17659;DHT22;8948;51.534;8.262;2023-07-20T05:38:59;16.90;75.50
17659;DHT22;8948;51.534;8.262;2023-07-20T05:43:59;16.90;75.20
17659;DHT22;8948;51.534;8.262;2023-07-20T05:49:00;16.80;75.60
17659;DHT22;8948;51.534;8.262;2023-07-20T05:54:01;16.60;76.70
17659;DHT22;8948;51.534;8.262;2023-07-20T05:59:01;16.50;77.10
17659;DHT22;8948;51.534;8.262;2023-07-20T06:04:02;16.60;75.90
17659;DHT22;8948;51.534;8.262;2023-07-20T06:09:04;16.70;76.70
17659;DHT22;8948;51.534;8.262;2023-07-20T06:14:08;16.70;76.70
17659;DHT22;8948;51.534;8.262;2023-07-20T06:19:08;16.70;76.90
17659;DHT22;8948;51.534;8.262;2023-07-20T06:24:11;16.70;76.70
17659;DHT22;8948;51.534;8.262;2023-07-20T06:29:12;16.80;76.20
17659;DHT22;8948;51.534;8.262;2023-07-20T06:34:12;17.00;75.70
17659;DHT22;8948;51.534;8.262;2023-07-20T06:39:13;17.40;74.70
17659;DHT22;8948;51.534;8.262;2023-07-20T06:44:14;17.40;73.60
17659;DHT22;8948;51.534;8.262;2023-07-20T06:49:27;17.70;72.80
17659;DHT22;8948;51.534;8.262;2023-07-20T06:54:28;17.60;71.30
17659;DHT22;8948;51.534;8.262;2023-07-20T06:59:28;17.30;72.90
17659;DHT22;8948;51.534;8.262;2023-07-20T07:04:29;17.20;74.00
17659;DHT22;8948;51.534;8.262;2023-07-20T07:09:30;17.40;72.70
17659;DHT22;8948;51.534;8.262;2023-07-20T07:14:30;17.50;72.90
17659;DHT22;8948;51.534;8.262;2023-07-20T07:19:31;17.70;71.70
17659;DHT22;8948;51.534;8.262;2023-07-20T07:24:32;17.90;70.40
17659;DHT22;8948;51.534;8.262;2023-07-20T07:29:35;17.90;70.50
17659;DHT22;8948;51.534;8.262;2023-07-20T07:34:36;18.00;69.50
17659;DHT22;8948;51.534;8.262;2023-07-20T07:39:36;17.80;70.80
17659;DHT22;8948;51.534;8.262;2023-07-20T07:44:37;18.10;70.50
17659;DHT22;8948;51.534;8.262;2023-07-20T07:49:37;18.40;70.80
17659;DHT22;8948;51.534;8.262;2023-07-20T07:54:38;19.00;70.10
17659;DHT22;8948;51.534;8.262;2023-07-20T07:59:38;19.60;65.30
17659;DHT22;8948;51.534;8.262;2023-07-20T08:04:39;19.70;63.70
17659;DHT22;8948;51.534;8.262;2023-07-20T08:09:39;19.90;61.80
17659;DHT22;8948;51.534;8.262;2023-07-20T08:14:40;19.80;63.10
17659;DHT22;8948;51.534;8.262;2023-07-20T08:19:40;19.50;63.10
17659;DHT22;8948;51.534;8.262;2023-07-20T08:24:42;19.70;64.10
17659;DHT22;8948;51.534;8.262;2023-07-20T08:29:43;20.20;61.80
17659;DHT22;8948;51.534;8.262;2023-07-20T08:34:44;20.00;61.30
17659;DHT22;8948;51.534;8.262;2023-07-20T08:39:44;20.10;59.00
17659;DHT22;8948;51.534;8.262;2023-07-20T08:44:47;20.60;59.90
17659;DHT22;8948;51.534;8.262;2023-07-20T08:49:48;21.00;59.10
17659;DHT22;8948;51.534;8.262;2023-07-20T08:54:50;21.40;59.30
17659;DHT22;8948;51.534;8.262;2023-07-20T08:59:52;21.80;57.20
17659;DHT22;8948;51.534;8.262;2023-07-20T09:04:53;21.90;54.50
17659;DHT22;8948;51.534;8.262;2023-07-20T09:09:57;21.30;56.20
17659;DHT22;8948;51.534;8.262;2023-07-20T09:14:57;21.40;56.20
17659;DHT22;8948;51.534;8.262;2023-07-20T09:20:06;21.90;54.30
17659;DHT22;8948;51.534;8.262;2023-07-20T09:25:15;21.40;54.80
17659;DHT22;8948;51.534;8.262;2023-07-20T09:30:17;21.90;55.70
17659;DHT22;8948;51.534;8.262;2023-07-20T09:35:22;21.10;55.90
17659;DHT22;8948;51.534;8.262;2023-07-20T09:40:24;21.40;54.40
17659;DHT22;8948;51.534;8.262;2023-07-20T09:45:57;22.20;54.20
17659;DHT22;8948;51.534;8.262;2023-07-20T09:50:58;22.00;53.10
17659;DHT22;8948;51.534;8.262;2023-07-20T09:55:58;21.30;53.30
17659;DHT22;8948;51.534;8.262;2023-07-20T10:01:02;22.40;50.70
17659;DHT22;8948;51.534;8.262;2023-07-20T10:06:06;23.00;52.10
17659;DHT22;8948;51.534;8.262;2023-07-20T10:11:10;22.60;49.30
17659;DHT22;8948;51.534;8.262;2023-07-20T10:16:28;23.10;48.20
17659;DHT22;8948;51.534;8.262;2023-07-20T10:21:29;22.90;48.40
17659;DHT22;8948;51.534;8.262;2023-07-20T10:26:30;23.20;46.90
17659;DHT22;8948;51.534;8.262;2023-07-20T10:31:32;23.50;48.50
17659;DHT22;8948;51.534;8.262;2023-07-20T10:36:44;24.00;47.60
17659;DHT22;8948;51.534;8.262;2023-07-20T10:41:46;24.10;47.90
17659;DHT22;8948;51.534;8.262;2023-07-20T10:46:47;24.20;45.50
17659;DHT22;8948;51.534;8.262;2023-07-20T10:51:49;24.50;48.90
17659;DHT22;8948;51.534;8.262;2023-07-20T10:57:20;24.60;45.60
17659;DHT22;8948;51.534;8.262;2023-07-20T11:02:19;24.70;43.80
17659;DHT22;8948;51.534;8.262;2023-07-20T11:07:38;25.10;45.70
17659;DHT22;8948;51.534;8.262;2023-07-20T11:12:39;25.50;42.70
17659;DHT22;8948;51.534;8.262;2023-07-20T11:17:40;25.50;41.20
17659;DHT22;8948;51.534;8.262;2023-07-20T11:22:40;25.50;46.40
17659;DHT22;8948;51.534;8.262;2023-07-20T11:27:45;26.00;43.10
17659;DHT22;8948;51.534;8.262;2023-07-20T11:32:49;25.60;46.10
17659;DHT22;8948;51.534;8.262;2023-07-20T11:37:50;25.20;43.10
17659;DHT22;8948;51.534;8.262;2023-07-20T11:42:50;24.90;40.80
17659;DHT22;8948;51.534;8.262;2023-07-20T11:47:52;25.10;42.90
17659;DHT22;8948;51.534;8.262;2023-07-20T11:52:52;25.70;37.40
17659;DHT22;8948;51.534;8.262;2023-07-20T11:58:06;25.60;42.50
17659;DHT22;8948;51.534;8.262;2023-07-20T12:03:07;24.50;44.30
17659;DHT22;8948;51.534;8.262;2023-07-20T12:08:08;24.50;42.50
17659;DHT22;8948;51.534;8.262;2023-07-20T12:13:10;24.90;43.10
17659;DHT22;8948;51.534;8.262;2023-07-20T12:18:13;25.30;41.60
17659;DHT22;8948;51.534;8.262;2023-07-20T12:23:14;25.50;43.10
17659;DHT22;8948;51.534;8.262;2023-07-20T12:28:17;24.80;41.40
17659;DHT22;8948;51.534;8.262;2023-07-20T12:33:18;25.60;41.80
17659;DHT22;8948;51.534;8.262;2023-07-20T12:38:18;26.20;40.00
17659;DHT22;8948;51.534;8.262;2023-07-20T12:43:19;26.40;37.40
17659;DHT22;8948;51.534;8.262;2023-07-20T12:48:20;26.80;39.70
17659;DHT22;8948;51.534;8.262;2023-07-20T12:53:20;27.20;37.90
17659;DHT22;8948;51.534;8.262;2023-07-20T12:58:21;27.10;35.40
17659;DHT22;8948;51.534;8.262;2023-07-20T13:03:22;27.30;37.00
17659;DHT22;8948;51.534;8.262;2023-07-20T13:08:23;26.80;35.40
17659;DHT22;8948;51.534;8.262;2023-07-20T13:13:25;26.20;37.10
17659;DHT22;8948;51.534;8.262;2023-07-20T13:18:26;26.80;41.30
17659;DHT22;8948;51.534;8.262;2023-07-20T13:23:27;27.40;35.70
17659;DHT22;8948;51.534;8.262;2023-07-20T13:28:27;26.00;38.80
17659;DHT22;8948;51.534;8.262;2023-07-20T13:33:28;26.40;40.50
17659;DHT22;8948;51.534;8.262;2023-07-20T13:38:29;27.10;38.20
17659;DHT22;8948;51.534;8.262;2023-07-20T13:43:30;27.20;36.40
17659;DHT22;8948;51.534;8.262;2023-07-20T13:48:30;27.20;37.30
17659;DHT22;8948;51.534;8.262;2023-07-20T13:53:31;27.40;36.40
17659;DHT22;8948;51.534;8.262;2023-07-20T13:58:32;27.50;35.70
17659;DHT22;8948;51.534;8.262;2023-07-20T14:03:33;26.80;38.40
17659;DHT22;8948;51.534;8.262;2023-07-20T14:08:34;26.90;37.10
17659;DHT22;8948;51.534;8.262;2023-07-20T14:13:34;26.60;36.10
17659;DHT22;8948;51.534;8.262;2023-07-20T14:18:35;25.90;36.50
17659;DHT22;8948;51.534;8.262;2023-07-20T14:23:35;26.30;38.80
17659;DHT22;8948;51.534;8.262;2023-07-20T14:28:36;26.90;38.00
17659;DHT22;8948;51.534;8.262;2023-07-20T14:33:38;27.40;33.20
17659;DHT22;8948;51.534;8.262;2023-07-20T14:38:38;27.60;33.60
17659;DHT22;8948;51.534;8.262;2023-07-20T14:43:40;27.70;35.20
17659;DHT22;8948;51.534;8.262;2023-07-20T14:48:41;27.80;33.60
17659;DHT22;8948;51.534;8.262;2023-07-20T14:53:42;27.70;36.80
17659;DHT22;8948;51.534;8.262;2023-07-20T14:58:42;26.80;36.30
17659;DHT22;8948;51.534;8.262;2023-07-20T15:03:43;26.30;37.10
17659;DHT22;8948;51.534;8.262;2023-07-20T15:08:43;26.20;36.20
17659;DHT22;8948;51.534;8.262;2023-07-20T15:13:44;26.70;38.00
17659;DHT22;8948;51.534;8.262;2023-07-20T15:18:44;27.60;36.90
17659;DHT22;8948;51.534;8.262;2023-07-20T15:23:45;27.50;36.20
17659;DHT22;8948;51.534;8.262;2023-07-20T15:28:46;26.90;36.70
17659;DHT22;8948;51.534;8.262;2023-07-20T15:33:47;26.50;36.00
17659;DHT22;8948;51.534;8.262;2023-07-20T15:38:47;26.30;36.20
17659;DHT22;8948;51.534;8.262;2023-07-20T15:43:48;26.00;37.40
17659;DHT22;8948;51.534;8.262;2023-07-20T15:48:49;25.80;37.20
17659;DHT22;8948;51.534;8.262;2023-07-20T15:53:49;25.90;36.10
17659;DHT22;8948;51.534;8.262;2023-07-20T15:58:50;26.90;37.30
17659;DHT22;8948;51.534;8.262;2023-07-20T16:03:50;27.60;34.70
17659;DHT22;8948;51.534;8.262;2023-07-20T16:08:51;27.60;33.90
17659;DHT22;8948;51.534;8.262;2023-07-20T16:13:51;27.00;33.70
17659;DHT22;8948;51.534;8.262;2023-07-20T16:18:55;26.60;34.80
17659;DHT22;8948;51.534;8.262;2023-07-20T16:23:55;26.40;35.60
17659;DHT22;8948;51.534;8.262;2023-07-20T16:28:56;26.20;36.10
17659;DHT22;8948;51.534;8.262;2023-07-20T16:33:58;25.80;36.50
17659;DHT22;8948;51.534;8.262;2023-07-20T16:38:59;26.00;37.20
17659;DHT22;8948;51.534;8.262;2023-07-20T16:43:59;25.80;34.60
17659;DHT22;8948;51.534;8.262;2023-07-20T16:49:00;25.90;34.60
17659;DHT22;8948;51.534;8.262;2023-07-20T16:54:04;25.80;36.50
17659;DHT22;8948;51.534;8.262;2023-07-20T16:59:07;25.70;35.70
17659;DHT22;8948;51.534;8.262;2023-07-20T17:04:08;25.60;37.40
17659;DHT22;8948;51.534;8.262;2023-07-20T17:09:09;25.50;38.00
17659;DHT22;8948;51.534;8.262;2023-07-20T17:14:09;25.50;38.30
17659;DHT22;8948;51.534;8.262;2023-07-20T17:19:11;25.50;37.70
17659;DHT22;8948;51.534;8.262;2023-07-20T17:24:12;25.30;36.90
17659;DHT22;8948;51.534;8.262;2023-07-20T17:29:12;25.00;38.10
17659;DHT22;8948;51.534;8.262;2023-07-20T17:34:13;24.70;39.10
17659;DHT22;8948;51.534;8.262;2023-07-20T17:39:13;24.80;40.90
17659;DHT22;8948;51.534;8.262;2023-07-20T17:44:14;24.90;40.20
17659;DHT22;8948;51.534;8.262;2023-07-20T17:49:14;25.00;39.30
17659;DHT22;8948;51.534;8.262;2023-07-20T17:54:15;25.10;40.20
17659;DHT22;8948;51.534;8.262;2023-07-20T17:59:15;25.20;40.30
17659;DHT22;8948;51.534;8.262;2023-07-20T18:04:16;25.10;39.00
17659;DHT22;8948;51.534;8.262;2023-07-20T18:09:16;24.90;40.10
17659;DHT22;8948;51.534;8.262;2023-07-20T18:14:17;24.80;40.70
17659;DHT22;8948;51.534;8.262;2023-07-20T18:19:18;24.70;40.70
17659;DHT22;8948;51.534;8.262;2023-07-20T18:24:18;24.70;39.70
17659;DHT22;8948;51.534;8.262;2023-07-20T18:29:19;24.60;39.70
17659;DHT22;8948;51.534;8.262;2023-07-20T18:34:19;24.70;41.10
17659;DHT22;8948;51.534;8.262;2023-07-20T18:39:20;24.60;41.50
17659;DHT22;8948;51.534;8.262;2023-07-20T18:44:21;24.50;40.80
17659;DHT22;8948;51.534;8.262;2023-07-20T18:49:23;24.40;42.30
17659;DHT22;8948;51.534;8.262;2023-07-20T18:54:26;24.30;44.30
17659;DHT22;8948;51.534;8.262;2023-07-20T18:59:26;24.10;43.80
17659;DHT22;8948;51.534;8.262;2023-07-20T19:04:27;23.90;45.10
17659;DHT22;8948;51.534;8.262;2023-07-20T19:09:27;23.70;46.60
17659;DHT22;8948;51.534;8.262;2023-07-20T19:14:28;23.40;47.20
17659;DHT22;8948;51.534;8.262;2023-07-20T19:19:28;23.20;47.90
17659;DHT22;8948;51.534;8.262;2023-07-20T19:24:31;22.90;48.80
17659;DHT22;8948;51.534;8.262;2023-07-20T19:29:32;22.70;48.80
17659;DHT22;8948;51.534;8.262;2023-07-20T19:34:32;22.30;49.80
17659;DHT22;8948;51.534;8.262;2023-07-20T19:39:33;22.10;50.90
17659;DHT22;8948;51.534;8.262;2023-07-20T19:44:33;21.90;51.20
17659;DHT22;8948;51.534;8.262;2023-07-20T19:49:34;21.80;51.00
17659;DHT22;8948;51.534;8.262;2023-07-20T19:54:35;21.70;51.40
17659;DHT22;8948;51.534;8.262;2023-07-20T19:59:35;21.50;51.50
17659;DHT22;8948;51.534;8.262;2023-07-20T20:04:36;21.40;51.90
17659;DHT22;8948;51.534;8.262;2023-07-20T20:09:37;21.20;53.00
17659;DHT22;8948;51.534;8.262;2023-07-20T20:14:37;21.00;52.90
17659;DHT22;8948;51.534;8.262;2023-07-20T20:19:38;20.80;52.80
17659;DHT22;8948;51.534;8.262;2023-07-20T20:24:38;20.80;52.90
17659;DHT22;8948;51.534;8.262;2023-07-20T20:29:39;20.80;52.70
17659;DHT22;8948;51.534;8.262;2023-07-20T20:34:39;20.80;53.20
17659;DHT22;8948;51.534;8.262;2023-07-20T20:39:40;20.70;53.00
17659;DHT22;8948;51.534;8.262;2023-07-20T20:44:40;20.60;53.20
17659;DHT22;8948;51.534;8.262;2023-07-20T20:49:42;20.60;54.90
17659;DHT22;8948;51.534;8.262;2023-07-20T20:54:46;20.70;54.10
17659;DHT22;8948;51.534;8.262;2023-07-20T20:59:48;20.60;54.20
17659;DHT22;8948;51.534;8.262;2023-07-20T21:04:48;20.50;54.80
17659;DHT22;8948;51.534;8.262;2023-07-20T21:09:50;20.40;55.00
17659;DHT22;8948;51.534;8.262;2023-07-20T21:14:50;20.40;55.20
17659;DHT22;8948;51.534;8.262;2023-07-20T21:19:51;20.40;55.60
17659;DHT22;8948;51.534;8.262;2023-07-20T21:24:51;20.40;55.50
17659;DHT22;8948;51.534;8.262;2023-07-20T21:29:52;20.30;55.70
17659;DHT22;8948;51.534;8.262;2023-07-20T21:34:53;20.30;56.30
17659;DHT22;8948;51.534;8.262;2023-07-20T21:39:55;20.20;56.30
17659;DHT22;8948;51.534;8.262;2023-07-20T21:44:55;20.10;56.50
17659;DHT22;8948;51.534;8.262;2023-07-20T21:49:56;20.10;56.40
17659;DHT22;8948;51.534;8.262;2023-07-20T21:54:58;20.10;56.40
17659;DHT22;8948;51.534;8.262;2023-07-20T21:59:59;20.10;56.20
17659;DHT22;8948;51.534;8.262;2023-07-20T22:05:00;20.10;56.30
17659;DHT22;8948;51.534;8.262;2023-07-20T22:10:00;20.10;55.90
17659;DHT22;8948;51.534;8.262;2023-07-20T22:15:01;20.10;56.70
17659;DHT22;8948;51.534;8.262;2023-07-20T22:20:02;20.10;57.00
17659;DHT22;8948;51.534;8.262;2023-07-20T22:25:05;20.00;57.20
17659;DHT22;8948;51.534;8.262;2023-07-20T22:30:06;20.00;56.40
17659;DHT22;8948;51.534;8.262;2023-07-20T22:35:10;20.00;56.30
17659;DHT22;8948;51.534;8.262;2023-07-20T22:40:12;20.00;56.30
17659;DHT22;8948;51.534;8.262;2023-07-20T22:45:13;19.90;56.20
17659;DHT22;8948;51.534;8.262;2023-07-20T22:50:13;19.90;57.00
17659;DHT22;8948;51.534;8.262;2023-07-20T22:55:17;19.80;56.00
17659;DHT22;8948;51.534;8.262;2023-07-20T23:00:19;19.80;55.80
17659;DHT22;8948;51.534;8.262;2023-07-20T23:05:27;19.70;56.50
17659;DHT22;8948;51.534;8.262;2023-07-20T23:10:27;19.70;57.60
17659;DHT22;8948;51.534;8.262;2023-07-20T23:15:28;19.40;59.00
17659;DHT22;8948;51.534;8.262;2023-07-20T23:20:28;19.20;61.40
17659;DHT22;8948;51.534;8.262;2023-07-20T23:25:30;19.10;58.90
17659;DHT22;8948;51.534;8.262;2023-07-20T23:30:30;19.00;58.10
17659;DHT22;8948;51.534;8.262;2023-07-20T23:35:31;18.80;57.90
17659;DHT22;8948;51.534;8.262;2023-07-20T23:40:32;18.70;58.40
17659;DHT22;8948;51.534;8.262;2023-07-20T23:45:33;18.30;61.50
17659;DHT22;8948;51.534;8.262;2023-07-20T23:50:36;18.10;63.40
17659;DHT22;8948;51.534;8.262;2023-07-20T23:55:37;18.10;65.60
